createdAt,value
2023-05-05T00:01:11.102Z,12.85
2023-05-05T00:03:39.110Z,12.87
2023-05-05T00:06:08.070Z,12.88
2023-05-05T00:08:35.990Z,12.89
2023-05-05T00:11:03.883Z,12.84
2023-05-05T00:13:31.764Z,12.80
2023-05-05T00:16:01.057Z,12.87
2023-05-05T00:18:29.550Z,12.87
2023-05-05T00:20:57.467Z,12.77
2023-05-05T00:23:25.378Z,12.75
2023-05-05T00:25:53.182Z,12.70
2023-05-05T00:28:21.151Z,12.74
2023-05-05T00:30:49.083Z,12.71
2023-05-05T00:33:18.407Z,12.75
2023-05-05T00:35:46.427Z,12.71
2023-05-05T00:38:14.374Z,12.69
2023-05-05T00:40:42.307Z,12.70
2023-05-05T00:43:10.230Z,12.67
2023-05-05T00:45:41.830Z,12.68
2023-05-05T00:48:10.483Z,12.75
2023-05-05T00:50:40.800Z,12.83
2023-05-05T00:53:08.699Z,12.70
2023-05-05T00:55:36.641Z,12.58
2023-05-05T00:58:05.480Z,12.51
2023-05-05T01:00:34.242Z,12.59
2023-05-05T01:03:03.213Z,12.66
2023-05-05T01:05:49.889Z,12.65
2023-05-05T01:08:34.816Z,12.60
2023-05-05T01:11:12.616Z,12.57
2023-05-05T01:13:53.728Z,12.54
2023-05-05T01:16:27.826Z,12.56
2023-05-05T01:19:12.427Z,12.58
2023-05-05T01:21:47.803Z,12.61
2023-05-05T01:24:44.981Z,12.58
2023-05-05T01:27:35.074Z,12.52
2023-05-05T01:30:29.662Z,12.61
2023-05-05T01:33:04.995Z,12.60
2023-05-05T01:35:38.911Z,12.54
2023-05-05T01:38:12.718Z,12.66
2023-05-05T01:40:49.894Z,12.54
2023-05-05T01:43:24.491Z,12.50
2023-05-05T01:45:55.918Z,12.41
2023-05-05T01:48:27.512Z,12.44
2023-05-05T01:50:55.831Z,12.33
2023-05-05T01:53:26.649Z,12.44
2023-05-05T01:55:58.330Z,12.32
2023-05-05T01:58:31.088Z,12.32
2023-05-05T02:01:00.122Z,12.38
2023-05-05T02:03:34.114Z,12.30
2023-05-05T02:06:04.053Z,12.47
2023-05-05T02:08:33.964Z,12.49
2023-05-05T02:11:02.825Z,12.54
2023-05-05T02:13:33.521Z,12.35
2023-05-05T02:16:04.150Z,12.33
2023-05-05T02:18:36.081Z,12.35
2023-05-05T02:21:04.595Z,12.25
2023-05-05T02:23:32.925Z,12.09
2023-05-05T02:26:07.375Z,12.18
2023-05-05T02:28:43.929Z,12.13
2023-05-05T02:31:15.280Z,12.01
2023-05-05T02:33:48.045Z,11.98
2023-05-05T02:36:22.324Z,11.82
2023-05-05T02:38:56.684Z,11.83
2023-05-05T02:41:29.519Z,11.91
2023-05-05T02:44:00.634Z,11.82
2023-05-05T02:46:29.594Z,11.71
2023-05-05T02:48:59.714Z,11.76
2023-05-05T02:51:27.613Z,11.75
2023-05-05T02:53:56.359Z,11.84
2023-05-05T02:56:35.414Z,11.68
2023-05-05T02:59:15.955Z,11.80
2023-05-05T03:02:01.714Z,11.70
2023-05-05T03:04:39.874Z,11.65
2023-05-05T03:07:14.219Z,11.53
2023-05-05T03:09:48.463Z,11.53
2023-05-05T03:12:23.204Z,11.45
2023-05-05T03:14:55.213Z,11.46
2023-05-05T03:17:26.619Z,11.48
2023-05-05T03:19:57.424Z,11.47
2023-05-05T03:22:27.600Z,11.41
2023-05-05T03:24:55.453Z,11.25
2023-05-05T03:27:23.390Z,11.22
2023-05-05T03:29:51.313Z,11.24
2023-05-05T03:32:19.175Z,11.12
2023-05-05T03:34:47.091Z,11.10
2023-05-05T03:37:16.413Z,11.10
2023-05-05T03:39:44.213Z,11.04
2023-05-05T03:42:12.008Z,11.05
2023-05-05T03:44:39.862Z,11.04
2023-05-05T03:47:07.776Z,11.05
2023-05-05T03:49:35.618Z,10.95
2023-05-05T03:52:03.454Z,10.90
2023-05-05T03:54:32.648Z,10.96
2023-05-05T03:57:00.450Z,10.98
2023-05-05T03:59:28.640Z,10.96
2023-05-05T04:01:56.792Z,10.78
2023-05-05T04:04:24.763Z,10.68
2023-05-05T04:06:52.650Z,10.65
2023-05-05T04:09:20.480Z,10.59
2023-05-05T04:11:49.752Z,10.66
2023-05-05T04:14:17.579Z,10.64
2023-05-05T04:16:45.497Z,10.72
2023-05-05T04:19:14.058Z,10.76
2023-05-05T04:21:41.918Z,10.79
2023-05-05T04:24:09.839Z,10.71
2023-05-05T04:26:37.682Z,10.75
2023-05-05T04:29:06.859Z,10.72
2023-05-05T04:31:34.700Z,10.78
2023-05-05T04:34:02.540Z,10.79
2023-05-05T04:36:30.434Z,10.80
2023-05-05T04:38:58.271Z,10.75
2023-05-05T04:41:27.299Z,10.76
2023-05-05T04:43:56.447Z,10.82
2023-05-05T04:46:25.853Z,10.84
2023-05-05T04:48:53.788Z,10.89
2023-05-05T04:51:21.776Z,10.93
2023-05-05T04:53:49.713Z,10.87
2023-05-05T04:56:17.655Z,10.89
2023-05-05T04:58:45.773Z,10.83
2023-05-05T05:01:13.667Z,10.80
2023-05-05T05:03:42.995Z,10.65
2023-05-05T05:06:11.031Z,10.66
2023-05-05T05:08:38.942Z,10.76
2023-05-05T05:11:06.996Z,10.83
2023-05-05T05:13:35.098Z,10.89
2023-05-05T05:16:03.535Z,11.05
2023-05-05T05:18:33.436Z,11.00
2023-05-05T05:21:03.465Z,11.33
2023-05-05T05:23:31.532Z,11.27
2023-05-05T05:25:59.737Z,11.44
2023-05-05T05:28:27.777Z,11.54
2023-05-05T05:30:55.702Z,11.74
2023-05-05T05:33:23.581Z,11.91
2023-05-05T05:35:51.460Z,11.99
2023-05-05T05:38:20.764Z,12.08
2023-05-05T05:40:48.699Z,12.09
2023-05-05T05:43:16.636Z,12.21
2023-05-05T05:45:44.683Z,12.33
2023-05-05T05:48:12.580Z,12.41
2023-05-05T05:50:40.500Z,12.53
2023-05-05T05:53:08.385Z,12.71
2023-05-05T05:55:37.643Z,12.85
2023-05-05T05:58:06.093Z,13.06
2023-05-05T06:00:33.924Z,13.25
2023-05-05T06:03:02.021Z,13.19
2023-05-05T06:05:29.922Z,13.50
2023-05-05T06:07:57.768Z,13.67
2023-05-05T06:10:28.271Z,13.73
2023-05-05T06:12:57.784Z,13.72
2023-05-05T06:15:25.941Z,13.82
2023-05-05T06:17:53.871Z,13.88
2023-05-05T06:20:21.866Z,14.14
2023-05-05T06:22:49.685Z,14.25
2023-05-05T06:25:17.752Z,14.39
2023-05-05T06:27:45.981Z,14.62
2023-05-05T06:30:15.805Z,14.72
2023-05-05T06:32:43.653Z,14.86
2023-05-05T06:35:11.671Z,15.05
2023-05-05T06:37:39.600Z,15.22
2023-05-05T06:40:09.439Z,15.48
2023-05-05T06:42:37.556Z,15.48
2023-05-05T06:45:06.113Z,15.55
2023-05-05T06:47:35.852Z,15.76
2023-05-05T06:50:03.879Z,16.05
2023-05-05T06:52:31.792Z,16.31
2023-05-05T06:54:59.722Z,16.35
2023-05-05T06:57:27.562Z,16.43
2023-05-05T06:59:55.427Z,16.37
2023-05-05T07:02:25.258Z,16.18
2023-05-05T07:04:56.341Z,16.21
2023-05-05T07:07:24.236Z,16.20
2023-05-05T07:09:52.187Z,16.64
2023-05-05T07:12:20.095Z,16.64
2023-05-05T07:14:48.085Z,16.77
2023-05-05T07:17:18.720Z,16.77
2023-05-05T07:19:55.027Z,16.79
2023-05-05T07:22:24.328Z,16.80
2023-05-05T07:24:53.395Z,16.96
2023-05-05T07:27:22.507Z,17.21
2023-05-05T07:29:50.454Z,17.39
2023-05-05T07:32:21.516Z,17.47
2023-05-05T07:34:49.400Z,17.54
2023-05-05T07:37:17.326Z,17.49
2023-05-05T07:39:47.442Z,17.73
2023-05-05T07:42:15.350Z,17.63
2023-05-05T07:44:43.216Z,17.90
2023-05-05T07:47:11.130Z,17.99
2023-05-05T07:49:38.981Z,17.95
2023-05-05T07:52:06.960Z,18.09
2023-05-05T07:54:34.743Z,18.06
2023-05-05T07:57:03.990Z,17.97
2023-05-05T07:59:31.838Z,17.99
2023-05-05T08:01:59.684Z,17.86
2023-05-05T08:04:27.569Z,17.94
2023-05-05T08:06:55.412Z,18.05
2023-05-05T08:09:23.283Z,18.21
2023-05-05T08:11:51.116Z,18.43
2023-05-05T08:14:20.389Z,18.47
2023-05-05T08:16:48.247Z,18.68
2023-05-05T08:19:28.115Z,18.70
2023-05-05T08:21:58.856Z,18.81
2023-05-05T08:24:27.946Z,18.90
2023-05-05T08:26:56.659Z,18.77
2023-05-05T08:29:26.026Z,18.99
2023-05-05T08:31:54.046Z,19.11
2023-05-05T08:34:21.873Z,18.90
2023-05-05T08:36:50.950Z,19.29
2023-05-05T08:39:19.108Z,19.67
2023-05-05T08:41:47.616Z,19.77
2023-05-05T08:58:21.354Z,20.15
2023-05-05T09:00:51.410Z,19.83
2023-05-05T09:03:19.588Z,20.05
2023-05-05T09:05:47.520Z,20.22
2023-05-05T09:08:15.660Z,20.23
2023-05-05T09:10:45.071Z,20.01
2023-05-05T09:13:13.303Z,20.00
2023-05-05T09:15:42.161Z,20.07
2023-05-05T09:18:13.038Z,20.45
2023-05-05T09:20:42.197Z,20.02
2023-05-05T09:23:11.684Z,19.84
2023-05-05T09:25:40.347Z,20.18
2023-05-05T09:28:13.195Z,20.07
2023-05-05T09:30:42.772Z,19.82
2023-05-05T09:33:12.556Z,20.01
2023-05-05T09:35:51.976Z,20.81
2023-05-05T09:38:20.893Z,21.19
2023-05-05T09:40:50.046Z,20.56
2023-05-05T09:43:19.842Z,20.69
2023-05-05T09:45:49.201Z,20.94
2023-05-05T09:48:29.498Z,21.38
2023-05-05T09:50:59.067Z,21.12
2023-05-05T09:53:28.217Z,21.21
2023-05-05T09:55:57.270Z,21.26
2023-05-05T09:58:27.129Z,21.44
2023-05-05T10:00:56.526Z,21.22
2023-05-05T10:03:25.466Z,21.02
2023-05-05T10:05:56.551Z,21.31
2023-05-05T10:08:26.432Z,21.77
2023-05-05T10:10:56.201Z,21.70
2023-05-05T10:13:26.241Z,21.47
2023-05-05T10:15:56.376Z,21.43
2023-05-05T10:18:27.164Z,21.54
2023-05-05T10:21:03.580Z,21.67
2023-05-05T10:23:39.545Z,21.44
2023-05-05T10:26:09.396Z,22.12
2023-05-05T10:28:45.710Z,21.77
2023-05-05T10:31:25.998Z,21.71
2023-05-05T10:34:00.687Z,20.97
2023-05-05T10:36:34.282Z,21.45
2023-05-05T10:39:06.724Z,21.61
2023-05-05T10:41:36.128Z,21.37
2023-05-05T10:44:06.101Z,21.69
2023-05-05T10:46:34.703Z,21.94
2023-05-05T10:49:14.157Z,22.12
2023-05-05T10:51:56.585Z,22.05
2023-05-05T10:54:35.242Z,22.13
2023-05-05T10:57:08.194Z,21.86
2023-05-05T10:59:43.900Z,22.02
2023-05-05T11:02:26.405Z,21.87
2023-05-05T11:05:14.242Z,22.16
2023-05-05T11:07:51.541Z,21.83
2023-05-05T11:10:23.059Z,21.33
2023-05-05T11:13:20.219Z,21.42
2023-05-05T11:15:49.526Z,21.22
2023-05-05T11:18:38.996Z,21.23
2023-05-05T11:21:18.793Z,20.93
2023-05-05T11:23:50.439Z,20.79
2023-05-05T11:26:53.392Z,20.67
2023-05-05T11:29:21.464Z,20.57
2023-05-05T11:32:12.995Z,20.43
2023-05-05T11:34:50.304Z,20.33
2023-05-05T11:37:18.407Z,20.25
2023-05-05T11:40:08.675Z,20.16
2023-05-05T11:42:37.545Z,20.17
2023-05-05T11:45:21.744Z,20.29
2023-05-05T11:47:49.858Z,19.97
2023-05-05T11:50:23.308Z,19.71
2023-05-05T11:52:51.623Z,19.74
2023-05-05T11:55:24.078Z,19.75
2023-05-05T11:57:52.203Z,19.99
2023-05-05T12:00:20.886Z,19.96
2023-05-05T12:02:57.797Z,19.98
2023-05-05T12:05:26.301Z,19.68
2023-05-05T12:08:00.252Z,20.16
2023-05-05T12:10:30.720Z,20.61
2023-05-05T12:12:59.440Z,20.51
2023-05-05T12:15:32.106Z,20.41
2023-05-05T12:18:29.965Z,20.05
2023-05-05T12:21:10.278Z,19.98
2023-05-05T12:23:53.011Z,20.17
2023-05-05T12:26:29.402Z,20.18
2023-05-05T12:28:58.033Z,20.43
2023-05-05T12:31:35.721Z,20.61
2023-05-05T12:34:12.775Z,20.57
2023-05-05T12:36:41.677Z,20.72
2023-05-05T12:39:09.752Z,21.08
2023-05-05T12:41:39.387Z,21.00
2023-05-05T12:44:08.025Z,21.14
2023-05-05T12:46:46.498Z,21.27
2023-05-05T12:49:14.908Z,21.09
2023-05-05T12:51:54.691Z,20.74
2023-05-05T12:54:23.856Z,20.59
2023-05-05T12:56:53.388Z,20.79
2023-05-05T12:59:31.908Z,20.55
2023-05-05T13:02:02.891Z,20.62
2023-05-05T13:04:31.200Z,20.68
2023-05-05T13:07:13.718Z,20.38
2023-05-05T13:09:42.384Z,20.55
2023-05-05T13:12:12.717Z,20.64
2023-05-05T13:14:41.211Z,20.77
2023-05-05T13:17:09.550Z,21.00
2023-05-05T13:19:43.680Z,21.43
2023-05-05T13:22:11.732Z,21.38
2023-05-05T13:24:50.943Z,21.59
2023-05-05T13:27:21.953Z,21.76
2023-05-05T13:29:50.121Z,21.85
2023-05-05T13:32:19.666Z,21.80
2023-05-05T13:34:47.904Z,22.03
2023-05-05T13:37:15.981Z,21.77
2023-05-05T13:39:44.556Z,21.51
2023-05-05T13:42:13.885Z,21.44
2023-05-05T13:44:43.519Z,21.53
2023-05-05T13:47:11.521Z,21.28
2023-05-05T13:49:39.689Z,21.56
2023-05-05T13:52:08.057Z,21.17
2023-05-05T13:54:36.845Z,21.05
2023-05-05T13:57:05.054Z,21.37
2023-05-05T13:59:40.412Z,21.45
2023-05-05T14:02:09.986Z,21.38
2023-05-05T14:04:38.373Z,21.07
2023-05-05T14:07:06.436Z,21.30
2023-05-05T14:09:34.522Z,21.33
2023-05-05T14:12:12.313Z,21.55
2023-05-05T14:14:40.424Z,21.40
2023-05-05T14:17:09.989Z,21.42
2023-05-05T14:19:38.223Z,21.67
2023-05-05T14:22:06.626Z,21.45
2023-05-05T14:24:34.792Z,21.44
2023-05-05T14:27:04.521Z,21.46
2023-05-05T14:29:32.585Z,21.39
2023-05-05T14:32:01.915Z,21.31
2023-05-05T14:34:31.503Z,21.37
2023-05-05T14:36:59.722Z,21.32
2023-05-05T14:39:27.842Z,21.44
2023-05-05T14:41:56.074Z,21.66
2023-05-05T14:44:24.175Z,21.95
2023-05-05T14:46:53.681Z,21.74
2023-05-05T14:49:21.959Z,21.72
2023-05-05T14:51:51.664Z,21.60
2023-05-05T14:54:27.969Z,21.79
2023-05-05T14:57:00.396Z,21.53
2023-05-05T14:59:31.282Z,21.53
2023-05-05T15:02:02.467Z,21.25
2023-05-05T15:04:30.959Z,21.07
2023-05-05T15:07:02.210Z,21.12
2023-05-05T15:09:31.569Z,21.25
2023-05-05T15:11:59.759Z,21.20
2023-05-05T15:14:29.361Z,21.09
2023-05-05T15:16:58.137Z,21.19
2023-05-05T15:19:26.181Z,21.19
2023-05-05T15:22:01.422Z,21.31
2023-05-05T15:24:31.167Z,21.30
2023-05-05T15:26:59.367Z,21.48
2023-05-05T15:29:27.409Z,21.37
2023-05-05T15:31:55.524Z,21.34
2023-05-05T15:34:23.875Z,21.42
2023-05-05T15:36:51.908Z,21.42
2023-05-05T15:39:20.916Z,21.42
2023-05-05T15:41:52.518Z,21.17
2023-05-05T15:44:22.918Z,21.17
2023-05-05T15:46:55.589Z,21.06
2023-05-05T15:49:25.210Z,20.98
2023-05-05T15:54:51.110Z,20.85
2023-05-05T15:57:20.676Z,20.97
2023-05-05T15:59:52.234Z,20.88
2023-05-05T16:02:20.584Z,20.81
2023-05-05T16:04:48.830Z,20.90
2023-05-05T16:07:17.028Z,20.90
2023-05-05T16:09:45.441Z,20.97
2023-05-05T16:12:13.736Z,20.99
2023-05-05T16:14:43.241Z,21.00
2023-05-05T16:17:11.520Z,21.12
2023-05-05T16:19:42.683Z,20.97
2023-05-05T16:22:10.794Z,20.85
2023-05-05T16:24:38.850Z,20.86
2023-05-05T16:27:06.906Z,20.82
2023-05-05T16:29:34.850Z,20.91
2023-05-05T16:32:04.803Z,20.90
2023-05-05T16:34:32.917Z,20.81
2023-05-05T16:37:01.291Z,20.70
2023-05-05T16:39:29.347Z,20.77
2023-05-05T16:41:57.416Z,20.67
2023-05-05T16:44:25.724Z,20.56
2023-05-05T16:46:53.710Z,20.59
2023-05-05T16:49:25.951Z,20.39
2023-05-05T16:51:54.091Z,20.37
2023-05-05T16:54:22.127Z,20.25
2023-05-05T16:57:09.664Z,20.23
2023-05-05T16:59:44.877Z,20.22
2023-05-05T17:02:12.939Z,20.17
2023-05-05T17:04:42.899Z,20.09
2023-05-05T17:07:15.314Z,19.96
2023-05-05T17:09:46.644Z,19.76
2023-05-05T17:12:17.129Z,19.72
2023-05-05T17:14:46.039Z,19.62
2023-05-05T17:17:15.616Z,19.51
2023-05-05T17:19:46.709Z,19.40
2023-05-05T17:22:15.731Z,19.39
2023-05-05T17:24:49.835Z,19.37
2023-05-05T17:27:20.047Z,19.32
2023-05-05T17:30:03.110Z,19.27
2023-05-05T17:32:37.107Z,19.30
2023-05-05T17:35:07.812Z,19.36
2023-05-05T17:37:36.192Z,19.26
2023-05-05T17:40:04.445Z,19.20
2023-05-05T17:42:33.149Z,19.20
2023-05-05T17:45:01.324Z,19.09
2023-05-05T17:47:30.040Z,19.01
2023-05-05T17:49:58.349Z,19.02
2023-05-05T17:52:27.804Z,18.89
2023-05-05T17:54:55.966Z,18.79
2023-05-05T17:57:24.206Z,18.62
2023-05-05T17:59:55.089Z,18.53
2023-05-05T18:02:29.510Z,18.49
2023-05-05T18:04:57.617Z,18.37
2023-05-05T18:07:27.771Z,18.32
2023-05-05T18:09:57.598Z,18.29
2023-05-05T18:12:28.915Z,18.25
2023-05-05T18:15:06.014Z,18.25
2023-05-05T18:21:17.840Z,18.06
2023-05-05T18:23:47.346Z,17.90
2023-05-05T18:26:15.582Z,17.42
2023-05-05T18:28:46.017Z,17.07
2023-05-05T18:31:13.996Z,16.93
2023-05-05T18:33:42.299Z,16.75
2023-05-05T18:36:10.200Z,16.49
2023-05-05T18:38:38.193Z,16.38
2023-05-05T18:41:07.697Z,16.24
2023-05-05T18:43:35.692Z,15.95
2023-05-05T18:46:03.610Z,15.80
2023-05-05T18:48:31.944Z,15.67
2023-05-05T18:51:02.679Z,15.45
2023-05-05T18:53:31.284Z,15.20
2023-05-05T18:56:00.604Z,15.05
2023-05-05T18:58:30.787Z,14.78
2023-05-05T19:00:58.969Z,14.90
2023-05-05T19:03:26.893Z,14.98
2023-05-05T19:05:54.822Z,14.97
2023-05-05T19:08:22.774Z,15.07
2023-05-05T19:10:50.599Z,15.11
2023-05-05T19:13:18.497Z,15.01
2023-05-05T19:15:47.925Z,14.93
2023-05-05T19:18:16.096Z,14.87
2023-05-05T19:20:43.927Z,14.91
2023-05-05T19:23:14.899Z,15.01
2023-05-05T19:25:42.773Z,15.13
2023-05-05T19:28:10.738Z,15.14
2023-05-05T19:30:38.927Z,15.22
2023-05-05T19:33:08.406Z,15.24
2023-05-05T19:35:36.312Z,15.30
2023-05-05T19:38:04.272Z,15.25
2023-05-05T19:40:32.163Z,15.16
2023-05-05T19:43:00.055Z,14.90
2023-05-05T19:45:27.894Z,14.76
2023-05-05T19:47:56.753Z,14.52
2023-05-05T19:50:26.914Z,14.64
2023-05-05T19:52:55.365Z,14.73
2023-05-05T19:55:23.491Z,14.70
2023-05-05T19:57:51.411Z,14.75
2023-05-05T20:01:23.031Z,14.80
2023-05-05T20:03:51.175Z,14.78
2023-05-05T20:06:20.552Z,14.90
2023-05-05T20:08:48.664Z,14.55
2023-05-05T20:11:17.914Z,14.46
2023-05-05T20:13:45.869Z,14.49
2023-05-05T20:16:15.715Z,14.48
2023-05-05T20:18:58.637Z,14.43
2023-05-05T20:21:27.921Z,14.57
2023-05-05T20:24:19.342Z,14.60
2023-05-05T20:28:10.683Z,14.74
2023-05-05T20:30:38.544Z,14.66
2023-05-05T20:33:06.523Z,14.74
2023-05-05T20:35:35.457Z,14.71
2023-05-05T20:41:10.478Z,14.71
2023-05-05T20:43:38.629Z,14.72
2023-05-05T20:46:07.171Z,14.68
2023-05-05T20:48:35.362Z,14.66
2023-05-05T20:51:04.732Z,14.71
2023-05-05T20:53:34.145Z,14.58
2023-05-05T20:56:02.124Z,14.48
2023-05-05T20:58:30.574Z,14.47
2023-05-05T21:00:58.435Z,14.51
2023-05-05T21:03:26.544Z,14.50
2023-05-05T21:20:30.313Z,14.39
2023-05-05T21:22:58.142Z,14.36
2023-05-05T21:25:26.730Z,14.24
2023-05-05T21:31:43.743Z,14.35
2023-05-05T21:34:14.157Z,14.25
2023-05-05T21:36:43.381Z,14.30
2023-05-05T21:39:11.286Z,14.37
2023-05-05T21:41:39.251Z,14.27
2023-05-05T21:44:09.922Z,14.20
2023-05-05T21:46:37.826Z,14.03
2023-05-05T21:49:14.311Z,13.97
2023-05-05T21:51:45.104Z,13.95
2023-05-05T21:54:13.275Z,13.91
2023-05-05T21:56:41.131Z,13.93
2023-05-05T21:59:09.089Z,13.97
2023-05-05T22:02:03.508Z,13.87
2023-05-05T22:04:31.803Z,13.70
2023-05-05T22:07:04.287Z,13.83
2023-05-05T22:09:34.027Z,13.65
2023-05-05T22:12:03.984Z,13.74
2023-05-05T22:14:38.356Z,13.63
2023-05-05T22:17:06.251Z,13.70
2023-05-05T22:19:34.097Z,13.58
2023-05-05T22:22:03.326Z,13.60
2023-05-05T22:24:31.236Z,13.65
2023-05-05T22:26:59.061Z,13.74
2023-05-05T22:29:26.948Z,13.81
2023-05-05T22:31:54.857Z,13.82
2023-05-05T22:34:23.822Z,13.85
2023-05-05T22:36:51.662Z,13.94
2023-05-05T22:39:23.703Z,13.92
2023-05-05T22:41:51.734Z,13.97
2023-05-05T22:44:21.550Z,14.00
2023-05-05T22:46:49.463Z,14.01
2023-05-05T22:49:17.394Z,13.87
2023-05-05T22:51:45.310Z,13.84
2023-05-05T22:54:13.114Z,13.86
2023-05-05T22:56:42.290Z,13.85
2023-05-05T22:59:10.185Z,13.86
2023-05-05T23:01:38.841Z,13.85
2023-05-05T23:04:07.316Z,13.87
2023-05-05T23:06:35.208Z,13.91
2023-05-05T23:09:03.109Z,13.89
2023-05-05T23:11:30.964Z,13.95
2023-05-05T23:14:00.194Z,14.01
2023-05-05T23:16:28.127Z,13.95
2023-05-05T23:18:56.072Z,13.94
2023-05-05T23:21:23.824Z,13.97
2023-05-05T23:23:51.523Z,14.00
2023-05-05T23:26:22.351Z,14.03
2023-05-05T23:28:50.132Z,14.16
2023-05-05T23:31:19.386Z,14.19
2023-05-05T23:33:47.273Z,14.05
2023-05-05T23:36:15.160Z,14.09
2023-05-05T23:38:42.941Z,14.15
2023-05-05T23:41:10.879Z,14.20
2023-05-05T23:43:38.695Z,14.26
2023-05-05T23:46:06.682Z,14.32
2023-05-05T23:48:35.859Z,14.24
2023-05-05T23:51:03.691Z,14.15
2023-05-05T23:53:31.507Z,13.99
2023-05-05T23:55:59.366Z,13.97
2023-05-05T23:58:27.568Z,14.04
